Time;durP1;ratioP1;P1;durP2;ratioP2;P2;SDS_P1;SDS_P2;PMS_P1;PMS_P2;Temp;Humidity;BMP_temperature;BMP_pressure;BME280_temperature;BME280_humidity;BME280_pressure;Samples;Min_cycle;Max_cycle;Signal;HPM_P1;HPM_P2
2022/07/08 06:17:37;;;;;;;9.38;1.95;;;;;;;14.84;57.84;97809.09;2092852;28;20554;-64
2022/07/08 06:18:39;;;;;;;16.15;2.10;;;;;;;15.04;57.18;97810.00;2093274;28;20220;-65
2022/07/08 06:19:41;;;;;;;9.52;2.08;;;;;;;15.24;56.80;97810.91;2093911;28;20716;-65
2022/07/08 06:33:12;;;;;;;10.70;1.83;;;;;;;14.95;53.32;97813.88;2084190;28;21056;-67
2022/07/08 06:34:14;;;;;;;20.80;1.45;;;;;;;15.31;53.68;97814.94;2084115;28;20696;-67
2022/07/08 06:35:15;;;;;;;6.28;1.58;;;;;;;15.73;53.54;97810.41;2084294;28;20200;-67
2022/07/08 06:36:17;;;;;;;6.95;1.15;;;;;;;15.91;52.97;97817.47;2080814;28;20200;-67
2022/07/08 06:37:18;;;;;;;7.13;1.70;;;;;;;16.15;52.97;97812.81;2087348;28;20220;-67
2022/07/08 06:47:00;;;;;;;7.55;1.00;;;;;;;16.77;48.86;97820.28;2097589;27;20551;-65
2022/07/08 06:48:03;;;;;;;4.30;1.20;;;;;;;16.67;49.44;97813.78;2089932;28;20208;-65
2022/07/08 06:49:04;;;;;;;9.75;1.10;;;;;;;16.73;49.21;97824.00;2090606;28;20195;-65
2022/07/08 06:50:06;;;;;;;7.07;1.90;;;;;;;16.75;48.61;97816.03;2091064;28;20204;-65
2022/07/08 06:51:10;;;;;;;5.90;1.90;;;;;;;16.65;48.69;97819.13;2091529;28;20192;-66
2022/07/08 06:52:11;;;;;;;7.05;1.58;;;;;;;17.09;48.51;97828.34;2089318;28;20295;-66
2022/07/08 06:53:13;;;;;;;4.35;1.10;;;;;;;16.98;47.61;97804.31;2088659;28;20195;-66
2022/07/08 07:05:00;;;;;;;4.22;1.20;;;;;;;16.84;49.02;97831.38;2087125;28;20567;-66
2022/07/08 07:06:02;;;;;;;8.07;2.10;;;;;;;17.17;48.32;97833.22;2084234;28;20675;-65
2022/07/08 07:07:04;;;;;;;14.98;1.75;;;;;;;17.08;47.35;97828.44;2079926;28;20212;-66
2022/07/08 07:08:05;;;;;;;7.85;1.70;;;;;;;17.40;46.97;97832.00;2075127;28;20190;-66
2022/07/08 07:09:07;;;;;;;9.82;2.10;;;;;;;17.29;46.67;97822.03;2076713;28;20204;-66
2022/07/08 07:10:09;;;;;;;6.63;1.67;;;;;;;17.14;45.52;97842.16;2074815;28;20200;-65
2022/07/08 07:11:10;;;;;;;8.73;1.30;;;;;;;16.67;47.59;97840.16;2075749;28;20208;-65
2022/07/08 07:12:12;;;;;;;11.55;1.27;;;;;;;17.03;47.34;97841.84;2077480;28;20224;-65
2022/07/08 07:13:13;;;;;;;5.10;1.60;;;;;;;16.97;46.54;97843.00;2075871;28;20210;-65
2022/07/08 07:14:14;;;;;;;7.15;1.30;;;;;;;17.10;46.90;97840.63;2075337;28;20208;-65
2022/07/08 07:26:03;;;;;;;6.60;1.60;;;;;;;16.98;47.15;97844.72;2083375;28;20564;-67
2022/07/08 07:27:05;;;;;;;6.65;1.20;;;;;;;17.07;46.46;97819.66;2074319;28;20229;-67
2022/07/08 07:28:06;;;;;;;9.60;1.67;;;;;;;16.49;47.58;97848.06;2069579;28;20203;-67
2022/07/08 07:29:08;;;;;;;9.13;1.30;;;;;;;15.41;50.24;97849.59;2071653;28;20202;-67
2022/07/08 07:30:10;;;;;;;8.00;1.48;;;;;;;15.88;50.07;97836.03;2071181;28;20198;-67
2022/07/08 07:31:12;;;;;;;12.63;1.30;;;;;;;16.42;49.54;97846.63;2072422;28;20201;-67
2022/07/08 07:32:13;;;;;;;8.13;2.15;;;;;;;16.85;48.37;97848.91;2071567;28;20285;-67
2022/07/08 07:33:15;;;;;;;7.20;1.70;;;;;;;17.33;47.09;97842.97;2076596;28;20194;-68
2022/07/08 07:34:17;;;;;;;6.43;1.25;;;;;;;17.68;45.27;97840.22;2079851;28;20197;-67
2022/07/08 07:35:18;;;;;;;6.53;1.45;;;;;;;17.44;45.49;97848.53;2076105;28;20197;-68
2022/07/08 07:36:20;;;;;;;8.30;1.50;;;;;;;16.97;45.87;97853.56;2073962;28;20205;-67
2022/07/08 07:37:21;;;;;;;6.07;1.40;;;;;;;17.14;46.46;97851.84;2073136;28;20224;-67
2022/07/08 07:38:23;;;;;;;11.00;2.10;;;;;;;17.71;46.41;97855.88;2073132;28;20198;-68
2022/07/08 07:48:00;;;;;;;12.80;1.30;;;;;;;18.76;43.24;97847.38;2101490;27;20555;-65
2022/07/08 07:49:02;;;;;;;6.03;1.30;;;;;;;18.97;43.67;97857.66;2099253;28;20199;-65
2022/07/08 07:50:04;;;;;;;13.13;2.13;;;;;;;18.75;43.66;97858.88;2100463;28;20187;-65
2022/07/08 07:51:05;;;;;;;6.38;2.05;;;;;;;18.14;43.95;97856.19;2094713;28;20550;-66
2022/07/08 07:52:07;;;;;;;6.32;1.48;;;;;;;17.43;45.00;97857.38;2088892;28;20225;-66
2022/07/08 07:53:08;;;;;;;9.98;1.77;;;;;;;17.12;45.81;97851.94;2081670;28;20189;-66
2022/07/08 07:54:10;;;;;;;5.97;1.45;;;;;;;17.72;45.15;97862.88;2083686;28;20576;-66
2022/07/08 07:55:11;;;;;;;13.80;1.17;;;;;;;17.79;45.16;97859.81;2083880;28;20203;-66
2022/07/08 07:56:13;;;;;;;6.88;1.33;;;;;;;18.14;43.88;97858.81;2084094;28;20272;-66
2022/07/08 07:57:14;;;;;;;6.40;1.48;;;;;;;17.90;44.78;97861.88;2076653;28;20229;-65
2022/07/08 07:58:16;;;;;;;10.55;1.50;;;;;;;17.85;43.26;97863.06;2074664;28;20825;-65
2022/07/08 07:59:17;;;;;;;8.00;1.45;;;;;;;17.31;45.26;97858.88;2074345;28;20645;-65
2022/07/08 08:00:19;;;;;;;6.53;1.50;;;;;;;17.71;44.65;97858.53;2073438;28;20197;-66
2022/07/08 08:01:25;;;;;;;6.80;1.77;;;;;;;18.35;43.95;97858.56;2071622;28;20280;-66
2022/07/08 08:02:27;;;;;;;8.88;1.40;;;;;;;18.86;42.80;97860.91;2073576;28;20230;-65
2022/07/08 08:03:28;;;;;;;8.10;1.50;;;;;;;19.21;41.90;97850.91;2076143;28;20339;-66
2022/07/08 08:04:30;;;;;;;11.02;2.40;;;;;;;19.24;42.18;97853.34;2077339;28;20224;-66
2022/07/08 08:05:31;;;;;;;8.85;1.58;;;;;;;18.83;42.00;97853.16;2074444;28;20199;-66
2022/07/08 08:06:33;;;;;;;6.13;1.10;;;;;;;19.03;41.29;97860.81;2071440;28;20241;-66
2022/07/08 08:07:36;;;;;;;12.32;1.92;;;;;;;19.28;40.87;97859.31;2073184;28;20248;-65
2022/07/08 08:08:37;;;;;;;14.80;1.92;;;;;;;18.79;41.90;97849.81;2073224;28;20204;-65
2022/07/08 08:09:39;;;;;;;6.07;1.70;;;;;;;18.98;42.47;97857.59;2075342;28;20198;-66
2022/07/08 08:10:41;;;;;;;6.35;1.20;;;;;;;19.24;42.21;97871.03;2072122;28;20561;-66
2022/07/08 08:11:42;;;;;;;7.75;2.25;;;;;;;18.37;41.92;97860.19;2072002;28;20201;-66
2022/07/08 08:12:43;;;;;;;10.52;1.55;;;;;;;18.71;43.38;97854.72;2071954;28;20205;-66
2022/07/08 08:13:45;;;;;;;8.13;1.70;;;;;;;18.90;42.00;97860.66;2072838;28;20205;-66
2022/07/08 08:14:46;;;;;;;9.00;1.70;;;;;;;19.47;41.89;97859.03;2066501;28;20194;-65
2022/07/08 08:30:26;;;;;;;9.45;2.75;;;;;;;19.55;41.57;97863.84;2084276;28;20555;-65
2022/07/08 08:31:28;;;;;;;5.72;1.50;;;;;;;19.67;41.40;97865.75;2081473;28;20205;-66
2022/07/08 08:32:30;;;;;;;7.15;1.65;;;;;;;19.87;40.91;97867.19;2082711;28;20231;-65
2022/07/08 08:33:31;;;;;;;8.90;1.60;;;;;;;19.25;41.01;97863.00;2083205;28;20193;-65
2022/07/08 08:34:33;;;;;;;7.90;1.83;;;;;;;19.80;39.42;97859.69;2082174;28;20193;-65
2022/07/08 08:35:34;;;;;;;8.63;1.40;;;;;;;19.90;39.46;97859.03;2082232;28;20193;-66
2022/07/08 08:36:36;;;;;;;10.57;1.40;;;;;;;19.45;40.39;97855.63;2081345;28;20192;-66
2022/07/08 08:37:37;;;;;;;9.90;1.95;;;;;;;19.45;40.36;97850.31;2080661;28;20200;-66
2022/07/08 08:38:39;;;;;;;6.97;1.80;;;;;;;19.75;39.41;97863.44;2081643;28;20193;-66
2022/07/08 08:39:40;;;;;;;8.18;1.75;;;;;;;19.41;40.32;97848.81;2079165;28;20204;-66
2022/07/08 08:40:42;;;;;;;5.68;2.50;;;;;;;19.48;39.92;97849.31;2081717;28;20197;-66
2022/07/08 08:41:44;;;;;;;8.10;1.85;;;;;;;19.57;39.87;97854.03;2082935;28;20673;-66
2022/07/08 08:42:45;;;;;;;5.47;1.80;;;;;;;19.37;40.07;97848.16;2083599;28;20224;-66
2022/07/08 08:43:47;;;;;;;5.43;1.50;;;;;;;18.95;41.02;97854.25;2083069;28;20208;-66
2022/07/08 08:44:49;;;;;;;8.15;1.65;;;;;;;17.87;42.93;97855.91;2081503;28;20302;-66
2022/07/08 08:57:29;;;;;;;7.72;2.00;;;;;;;18.35;43.58;97851.47;2094296;27;20570;-67
2022/07/08 08:58:31;;;;;;;3.92;1.30;;;;;;;19.38;41.67;97846.38;2095302;28;20591;-68
2022/07/08 08:59:34;;;;;;;10.68;1.50;;;;;;;20.14;39.52;97846.97;2094874;28;20194;-68
2022/07/08 09:00:36;;;;;;;4.47;1.48;;;;;;;20.16;38.87;97848.56;2095163;28;20546;-68
2022/07/08 09:01:39;;;;;;;11.25;2.08;;;;;;;19.46;39.99;97843.25;2092953;28;20249;-68
2022/07/08 09:02:41;;;;;;;6.43;1.58;;;;;;;19.90;40.54;97839.63;2094746;28;20217;-68
2022/07/08 09:03:44;;;;;;;9.45;1.40;;;;;;;20.19;39.42;97847.53;2095283;28;21036;-68
2022/07/08 09:04:47;;;;;;;6.35;1.83;;;;;;;19.81;40.41;97848.16;2102650;28;20191;-68
2022/07/08 09:05:49;;;;;;;5.80;1.48;;;;;;;19.73;40.93;97845.94;2101400;28;20311;-68
2022/07/08 09:06:50;;;;;;;11.07;2.17;;;;;;;19.80;41.06;97846.44;2094612;28;20230;-68
2022/07/08 09:07:52;;;;;;;14.10;1.85;;;;;;;19.65;41.45;97846.44;2094010;28;20195;-68
2022/07/08 09:17:51;;;;;;;7.38;1.60;;;;;;;19.99;39.30;97844.34;2082555;28;20543;-65
2022/07/08 09:19:11;;;;;;;7.53;1.20;;;;;;;19.70;39.63;97843.50;2078074;28;20200;-65
2022/07/08 09:20:13;;;;;;;6.63;1.50;;;;;;;20.06;39.75;97836.81;2075944;28;20205;-65
2022/07/08 09:21:15;;;;;;;5.82;1.52;;;;;;;20.52;39.77;97833.00;2077419;28;20838;-65
2022/07/08 09:22:20;;;;;;;7.63;2.38;;;;;;;20.90;39.09;97836.69;2069961;28;20229;-66
2022/07/08 09:23:26;;;;;;;13.88;3.15;;;;;;;20.85;39.21;97837.84;2067722;28;20650;-65
2022/07/08 09:24:29;;;;;;;11.57;1.33;;;;;;;21.03;39.17;97827.78;2067430;28;20228;-65
2022/07/08 09:33:14;;;;;;;6.57;1.33;;;;;;;20.69;38.90;97837.16;2083197;27;20597;-65
2022/07/08 09:34:20;;;;;;;5.85;1.20;;;;;;;21.43;38.37;97853.38;2076264;28;20245;-68
2022/07/08 09:35:22;;;;;;;8.65;1.65;;;;;;;21.51;37.36;97843.06;2074304;28;20197;-68
2022/07/08 09:36:23;;;;;;;8.05;1.50;;;;;;;21.65;37.28;97841.28;2069109;28;20193;-67
2022/07/08 09:37:25;;;;;;;6.95;1.60;;;;;;;21.65;36.60;97834.16;2060527;28;20214;-68
2022/07/08 09:38:28;;;;;;;8.88;2.15;;;;;;;21.23;36.45;97845.94;2059436;28;20195;-68
2022/07/08 09:39:29;;;;;;;10.43;1.80;;;;;;;20.78;36.96;97836.56;2061205;28;20202;-68
2022/07/08 09:49:33;;;;;;;7.85;1.40;;;;;;;21.59;35.75;97845.22;2100524;27;20573;-67
2022/07/08 09:50:38;;;;;;;4.78;1.60;;;;;;;22.01;36.11;97853.72;2094970;28;20196;-67
2022/07/08 09:52:00;;;;;;;7.25;1.52;;;;;;;22.12;35.92;97846.81;2086024;28;20216;-67
2022/07/08 09:53:22;;;;;;;5.90;1.65;;;;;;;21.72;36.74;97847.84;2078808;28;20204;-67
2022/07/08 09:54:25;;;;;;;8.52;1.50;;;;;;;22.26;36.31;97851.09;2078265;28;20204;-68
2022/07/08 09:55:31;;;;;;;6.18;1.90;;;;;;;22.24;35.48;97850.38;2077529;28;20215;-68
2022/07/08 09:56:32;;;;;;;5.22;1.35;;;;;;;21.88;36.15;97846.75;2078221;28;20197;-69
2022/07/08 09:57:34;;;;;;;6.57;1.50;;;;;;;22.04;35.64;97857.13;2086917;28;20196;-70
2022/07/08 10:07:30;;;;;;;8.40;1.48;;;;;;;22.25;35.92;97844.09;2067028;28;20592;-65
2022/07/08 10:08:32;;;;;;;6.72;1.60;;;;;;;22.30;35.64;97841.94;2064388;28;20197;-65
2022/07/08 10:09:34;;;;;;;6.03;1.45;;;;;;;22.34;34.90;97854.88;2064396;28;20204;-65
2022/07/08 10:10:38;;;;;;;10.57;1.98;;;;;;;22.10;34.24;97848.72;2062917;28;20599;-63
2022/07/08 10:11:39;;;;;;;7.55;1.88;;;;;;;21.49;36.08;97849.44;2064152;28;20199;-64
2022/07/08 10:12:42;;;;;;;10.02;1.58;;;;;;;21.73;35.89;97848.72;2059910;28;20202;-63
2022/07/08 10:13:44;;;;;;;12.90;1.63;;;;;;;21.41;36.21;97844.69;2061020;28;20192;-63
2022/07/08 10:14:49;;;;;;;12.48;1.73;;;;;;;21.32;36.81;97818.78;2062637;28;20199;-63
2022/07/08 10:15:55;;;;;;;5.88;1.55;;;;;;;21.66;36.00;97841.19;2076002;28;20688;-65
2022/07/08 10:16:58;;;;;;;6.22;1.30;;;;;;;21.53;36.06;97845.63;2067436;28;20690;-66
2022/07/08 10:18:20;;;;;;;10.07;1.40;;;;;;;21.50;35.04;97843.19;2064198;28;20203;-66
2022/07/08 10:30:25;;;;;;;6.15;1.10;;;;;;;22.48;35.90;97853.06;2083792;28;20568;-66
2022/07/08 10:31:29;;;;;;;9.25;1.55;;;;;;;22.51;35.46;97850.16;2084152;28;20197;-65
2022/07/08 10:32:36;;;;;;;12.70;1.60;;;;;;;22.44;35.54;97848.94;2085466;28;20747;-66
2022/07/08 10:33:45;;;;;;;7.63;1.42;;;;;;;22.29;36.18;97850.88;2081275;28;20631;-66
2022/07/08 10:35:07;;;;;;;6.82;1.30;;;;;;;22.67;35.81;97855.19;2082617;28;20204;-65
2022/07/08 10:36:08;;;;;;;7.45;1.23;;;;;;;23.36;33.97;97857.06;2078729;28;20203;-66
2022/07/08 10:37:10;;;;;;;11.63;1.50;;;;;;;22.90;34.07;97855.28;2078736;28;20698;-65
2022/07/08 10:38:29;;;;;;;7.03;1.83;;;;;;;22.95;35.82;97856.59;2073418;28;20207;-68
2022/07/08 10:39:31;;;;;;;8.50;1.15;;;;;;;22.92;35.92;97854.19;2073014;28;20201;-68
2022/07/08 10:40:41;;;;;;;8.25;1.20;;;;;;;23.25;33.99;97851.72;2079708;28;20204;-66
2022/07/08 10:55:07;;;;;;;4.38;1.25;;;;;;;22.63;34.89;97853.75;2100065;28;21193;-66
2022/07/08 10:56:53;;;;;;;6.78;1.30;;;;;;;23.21;33.75;97852.94;2090635;28;20551;-63
2022/07/08 10:57:55;;;;;;;7.00;1.48;;;;;;;23.69;33.77;97847.41;2076502;28;20264;-63
2022/07/08 10:59:33;;;;;;;10.05;1.50;;;;;;;23.74;32.20;97845.22;2068663;28;20202;-63
2022/07/08 11:00:39;;;;;;;8.07;1.63;;;;;;;23.98;32.74;97851.41;2074930;28;20186;-63
2022/07/08 11:11:03;;;;;;;3.55;1.50;;;;;;;23.23;33.76;97856.34;2082435;28;20553;-70
2022/07/08 11:12:05;;;;;;;3.80;1.30;;;;;;;23.49;33.90;97857.00;2068285;28;20230;-70
2022/07/08 11:13:07;;;;;;;6.40;2.00;;;;;;;23.73;32.81;97848.88;2045835;28;20243;-69
2022/07/08 11:14:09;;;;;;;5.80;1.42;;;;;;;23.62;32.91;97855.03;2053807;28;20285;-68
2022/07/08 11:15:16;;;;;;;10.52;1.70;;;;;;;23.84;33.15;97850.66;2061405;28;20238;-68
2022/07/08 11:16:19;;;;;;;7.75;1.52;;;;;;;24.13;32.24;97850.16;2053575;28;20203;-69
2022/07/08 11:17:26;;;;;;;5.57;1.00;;;;;;;24.29;32.51;97844.44;2054085;28;20757;-69
2022/07/08 11:18:28;;;;;;;3.33;0.95;;;;;;;24.35;32.57;97846.59;2053048;28;20199;-68
2022/07/08 11:19:32;;;;;;;8.80;1.35;;;;;;;24.24;32.75;97851.94;2053134;28;20346;-68
2022/07/08 11:20:35;;;;;;;6.13;1.50;;;;;;;24.04;32.63;97851.75;2061827;28;20776;-68
2022/07/08 11:31:28;;;;;;;28.02;8.25;;;;;;;23.24;34.15;97844.72;2087121;28;20573;-66
2022/07/08 11:32:30;;;;;;;7.47;1.20;;;;;;;23.33;33.34;97843.16;2074976;28;20229;-68
2022/07/08 11:33:40;;;;;;;8.68;1.50;;;;;;;23.38;34.08;97846.31;2053888;28;20199;-68
2022/07/08 11:34:43;;;;;;;8.63;1.85;;;;;;;23.74;32.88;97839.03;2057391;28;20639;-68
2022/07/08 11:35:45;;;;;;;7.15;1.58;;;;;;;23.99;33.55;97842.44;2061450;28;20211;-71
2022/07/08 11:36:58;;;;;;;8.50;1.60;;;;;;;24.18;32.23;97841.81;2057854;28;20230;-71
2022/07/08 11:38:00;;;;;;;6.18;1.23;;;;;;;24.10;32.80;97837.94;2077031;28;20198;-72
2022/07/08 11:39:04;;;;;;;8.32;1.65;;;;;;;24.52;32.36;97839.00;2093451;28;20208;-71
2022/07/08 11:40:07;;;;;;;4.93;1.25;;;;;;;23.92;32.52;97836.75;2093030;28;20264;-71
2022/07/08 11:41:10;;;;;;;8.48;1.42;;;;;;;23.86;32.25;97847.88;2077531;28;20236;-71
2022/07/08 11:42:12;;;;;;;7.20;1.40;;;;;;;23.78;32.65;97836.00;2069536;28;20225;-71
2022/07/08 11:53:22;;;;;;;5.50;1.30;;;;;;;25.56;30.02;97837.34;2089764;28;20564;-70
2022/07/08 11:54:26;;;;;;;7.10;1.55;;;;;;;24.71;30.65;97833.00;2085478;28;20639;-69
2022/07/08 11:56:39;;;;;;;7.50;1.40;;;;;;;23.19;33.17;97838.91;2082666;28;20239;-69
2022/07/08 11:57:42;;;;;;;6.85;1.50;;;;;;;23.96;32.96;97840.88;2072853;28;20226;-69
2022/07/08 11:58:44;;;;;;;5.75;1.30;;;;;;;23.74;31.98;97833.72;2066019;28;20198;-69
2022/07/08 11:59:47;;;;;;;11.50;1.77;;;;;;;23.22;33.52;97842.16;2051350;28;20290;-69
2022/07/08 12:00:50;;;;;;;4.88;1.20;;;;;;;23.43;32.98;97831.66;2045945;28;20212;-70
2022/07/08 12:01:53;;;;;;;11.02;1.38;;;;;;;23.72;32.36;97838.31;2049206;28;20232;-68
2022/07/08 12:02:55;;;;;;;6.90;1.40;;;;;;;24.16;31.31;97835.72;2065531;28;20201;-68
2022/07/08 12:12:23;;;;;;;3.53;1.00;;;;;;;24.32;31.46;97833.50;2084378;27;20557;-67
2022/07/08 12:13:40;;;;;;;6.25;1.10;;;;;;;24.50;31.55;97825.78;2076138;28;20212;-67
2022/07/08 12:14:42;;;;;;;7.35;1.55;;;;;;;24.07;31.48;97835.50;2078663;28;20259;-68
2022/07/08 12:15:44;;;;;;;8.15;2.90;;;;;;;24.10;31.90;97831.75;2079155;28;20197;-68
2022/07/08 12:16:49;;;;;;;8.23;1.73;;;;;;;23.21;33.19;97828.97;2078067;28;20323;-68
2022/07/08 12:17:58;;;;;;;9.23;2.28;;;;;;;23.22;33.68;97839.50;2071043;28;20256;-69
2022/07/08 12:19:02;;;;;;;5.63;1.40;;;;;;;24.11;32.27;97826.28;2067829;28;20209;-69
2022/07/08 12:20:04;;;;;;;7.53;1.50;;;;;;;24.66;32.52;97825.41;2073838;28;20206;-68
2022/07/08 12:21:22;;;;;;;8.13;1.60;;;;;;;24.66;32.23;97829.88;2077797;28;20280;-69
2022/07/08 12:22:49;;;;;;;8.00;1.10;;;;;;;25.25;31.15;97833.78;2068307;28;20226;-66
2022/07/08 12:37:35;;;;;;;5.97;1.35;;;;;;;25.18;29.33;97814.78;2096828;28;20630;-65
2022/07/08 12:38:54;;;;;;;7.50;1.73;;;;;;;25.38;29.27;97813.09;2092048;28;20824;-63
2022/07/08 12:39:56;;;;;;;9.90;1.30;;;;;;;25.01;29.48;97808.19;2096357;28;20192;-65
2022/07/08 12:40:58;;;;;;;10.82;1.73;;;;;;;24.90;29.49;97810.94;2090230;28;20197;-65
2022/07/08 12:42:05;;;;;;;4.28;1.35;;;;;;;24.00;30.44;97806.78;2088954;28;20225;-65
2022/07/08 12:43:10;;;;;;;10.13;1.50;;;;;;;23.66;31.37;97814.81;2078208;28;20288;-64
2022/07/08 12:44:40;;;;;;;9.57;1.80;;;;;;;23.69;31.23;97815.41;2078167;28;20233;-67
2022/07/08 12:45:44;;;;;;;7.80;1.13;;;;;;;24.40;30.95;97819.53;2090566;28;20202;-66
2022/07/08 12:47:01;;;;;;;8.65;1.77;;;;;;;24.92;30.98;97806.31;2084420;28;20225;-67
2022/07/08 12:48:07;;;;;;;6.72;1.38;;;;;;;24.94;30.84;97817.72;2083776;28;20530;-67
2022/07/08 12:49:32;;;;;;;7.32;1.40;;;;;;;25.57;29.38;97812.31;2077611;28;20209;-67
2022/07/08 13:00:41;;;;;;;13.07;1.20;;;;;;;25.38;30.84;97807.72;2110296;27;20517;-65
2022/07/08 13:01:44;;;;;;;8.98;1.30;;;;;;;26.01;29.52;97811.16;2091123;28;20617;-65
2022/07/08 13:03:00;;;;;;;5.70;1.42;;;;;;;26.28;29.14;97802.50;2091615;28;20213;-65
2022/07/08 13:04:21;;;;;;;7.35;1.30;;;;;;;25.82;28.71;97812.81;2101219;28;20209;-67
2022/07/08 13:05:39;;;;;;;6.47;0.98;;;;;;;25.25;29.52;97807.94;2101004;28;20871;-67
2022/07/08 13:06:41;;;;;;;4.15;1.13;;;;;;;25.33;29.57;97811.75;2085935;28;20202;-67
2022/07/08 13:07:57;;;;;;;7.65;1.45;;;;;;;25.29;30.20;97813.81;2089711;28;20216;-67
2022/07/08 13:09:03;;;;;;;3.97;1.00;;;;;;;25.48;29.71;97814.94;2082100;28;20204;-67
2022/07/08 13:10:12;;;;;;;5.75;1.00;;;;;;;25.69;28.80;97802.34;2066003;28;20198;-68
2022/07/08 13:11:17;;;;;;;5.40;1.10;;;;;;;25.68;29.07;97810.53;2088046;28;20767;-68
2022/07/08 13:12:28;;;;;;;9.07;1.23;;;;;;;26.31;28.75;97812.06;2102403;28;20242;-68
2022/07/08 13:13:33;;;;;;;10.57;1.35;;;;;;;26.63;28.19;97805.63;2094898;28;20200;-68
2022/07/08 13:24:57;;;;;;;6.60;1.33;;;;;;;26.45;27.74;97817.03;2112895;27;21280;-68
2022/07/08 13:25:59;;;;;;;4.50;1.10;;;;;;;25.83;27.37;97814.50;2114427;28;20584;-68
2022/07/08 13:27:02;;;;;;;3.83;1.20;;;;;;;25.31;27.77;97801.19;2088998;28;20696;-68
2022/07/08 13:28:06;;;;;;;3.67;1.15;;;;;;;26.07;27.93;97806.13;2093447;28;20196;-69
2022/07/08 13:29:22;;;;;;;6.35;1.48;;;;;;;26.57;27.10;97812.38;2084976;28;20208;-69
2022/07/08 13:30:24;;;;;;;7.45;1.75;;;;;;;26.24;26.84;97798.41;2080502;28;20201;-68
2022/07/08 13:31:26;;;;;;;4.45;1.10;;;;;;;25.75;27.73;97792.94;2076253;28;20224;-68
2022/07/08 13:32:34;;;;;;;3.10;1.10;;;;;;;25.77;28.25;97798.16;2063899;28;20231;-68
2022/07/08 13:33:45;;;;;;;5.45;1.20;;;;;;;26.06;28.06;97806.28;2070574;28;20198;-69
2022/07/08 13:34:50;;;;;;;6.22;1.20;;;;;;;26.21;28.03;97802.22;2057793;28;20326;-68
2022/07/08 13:36:09;;;;;;;4.03;1.45;;;;;;;24.96;29.10;97786.38;2077822;28;20200;-69
2022/07/08 13:37:15;;;;;;;6.18;1.00;;;;;;;24.47;30.81;97794.03;2085803;28;20232;-69
2022/07/08 13:48:17;;;;;;;4.93;1.55;;;;;;;26.75;27.23;97793.78;2098767;27;20567;-68
2022/07/08 13:49:26;;;;;;;3.72;1.10;;;;;;;26.53;27.30;97794.91;2092467;28;20222;-68
2022/07/08 13:50:32;;;;;;;4.90;1.25;;;;;;;26.35;27.27;97792.91;2072539;28;20198;-68
2022/07/08 13:51:34;;;;;;;8.73;1.35;;;;;;;26.10;27.58;97788.13;2048988;28;20208;-68
2022/07/08 13:52:36;;;;;;;7.13;1.20;;;;;;;25.96;28.76;97795.53;2057293;28;20207;-69
2022/07/08 13:53:38;;;;;;;8.15;1.52;;;;;;;27.03;27.61;97791.19;2065330;28;20214;-69
2022/07/08 13:55:14;;;;;;;4.93;1.30;;;;;;;26.88;26.57;97791.66;2055771;28;20218;-69
2022/07/08 13:56:22;;;;;;;4.03;1.20;;;;;;;25.90;28.83;97791.59;2069575;28;20664;-69
2022/07/08 13:57:31;;;;;;;10.90;1.35;;;;;;;26.60;27.70;97797.84;2048802;28;20239;-69
2022/07/08 13:58:41;;;;;;;7.95;1.23;;;;;;;26.39;27.04;97798.84;2040163;28;20277;-69
2022/07/08 13:59:42;;;;;;;4.45;1.33;;;;;;;26.30;27.42;97797.03;2045590;28;20649;-69
2022/07/08 14:00:48;;;;;;;4.95;1.65;;;;;;;26.53;27.00;97790.38;2053591;28;20401;-69
2022/07/08 14:01:50;;;;;;;10.27;1.20;;;;;;;25.99;27.88;97797.94;2064509;28;20292;-68
2022/07/08 14:02:53;;;;;;;7.82;1.42;;;;;;;26.46;27.33;97786.59;2064270;28;20203;-69
2022/07/08 14:03:57;;;;;;;4.10;1.00;;;;;;;26.13;27.21;97793.19;2042230;28;20208;-69
2022/07/08 14:05:01;;;;;;;5.07;1.48;;;;;;;26.05;27.12;97792.03;2054112;28;20204;-69
2022/07/08 14:06:04;;;;;;;6.60;1.33;;;;;;;26.09;26.38;97792.63;2046793;28;20291;-68
2022/07/08 14:07:09;;;;;;;5.10;1.10;;;;;;;26.42;26.63;97771.78;2063142;28;20297;-69
2022/07/08 14:08:11;;;;;;;15.15;2.17;;;;;;;26.82;26.08;97789.53;2068802;28;21146;-69
2022/07/08 14:09:32;;;;;;;10.55;1.20;;;;;;;26.43;26.77;97781.50;2063186;28;20286;-69
2022/07/08 14:10:36;;;;;;;6.18;1.40;;;;;;;26.82;26.41;97786.03;2077943;28;20876;-69
2022/07/08 14:11:43;;;;;;;5.13;1.20;;;;;;;26.55;26.48;97787.56;2076750;28;20209;-68
2022/07/08 14:12:49;;;;;;;7.97;1.95;;;;;;;26.43;26.59;97788.72;2061711;28;20593;-71
2022/07/08 14:14:18;;;;;;;8.45;1.27;;;;;;;25.82;27.25;97782.53;2071854;28;20240;-69
2022/07/08 14:15:36;;;;;;;5.50;1.65;;;;;;;26.11;27.31;97774.59;2065295;28;20845;-69
2022/07/08 14:17:20;;;;;;;3.55;1.10;;;;;;;26.91;26.61;97778.97;2086813;28;21122;-69
2022/07/08 14:18:26;;;;;;;6.95;1.20;;;;;;;26.70;27.40;97780.81;2051483;28;20754;-68
2022/07/08 14:19:43;;;;;;;10.32;1.75;;;;;;;26.63;27.64;97782.34;2036130;28;20300;-69
2022/07/08 14:21:21;;;;;;;3.20;1.13;;;;;;;26.83;27.06;97780.53;2107430;27;20680;-69
2022/07/08 14:22:39;;;;;;;2.42;0.80;;;;;;;26.60;27.07;97776.44;2073695;28;20208;-69
2022/07/08 14:23:47;;;;;;;10.07;1.48;;;;;;;25.82;27.36;97780.72;2074551;28;20268;-68
2022/07/08 14:24:52;;;;;;;7.85;0.90;;;;;;;25.43;28.13;97781.44;2073092;28;20293;-69
2022/07/08 14:25:55;;;;;;;8.10;1.63;;;;;;;25.89;27.83;97778.31;2076996;28;20224;-69
2022/07/08 14:26:58;;;;;;;5.93;1.40;;;;;;;25.94;27.95;97775.25;2069879;28;20774;-69
2022/07/08 14:28:17;;;;;;;7.50;1.65;;;;;;;26.61;27.95;97775.44;2077691;28;20209;-69
2022/07/08 14:29:36;;;;;;;4.28;1.60;;;;;;;26.07;27.56;97771.34;2070967;28;20207;-69
2022/07/08 14:30:38;;;;;;;6.15;1.10;;;;;;;26.28;27.29;97775.72;2077550;28;20200;-69
2022/07/08 14:31:40;;;;;;;5.72;1.45;;;;;;;26.63;27.45;97778.84;2085933;28;20216;-69
2022/07/08 14:32:42;;;;;;;5.93;1.00;;;;;;;26.59;27.21;97777.41;2077414;28;20300;-70
2022/07/08 14:33:45;;;;;;;6.28;1.42;;;;;;;26.47;27.06;97769.53;2070464;28;20289;-70
2022/07/08 14:34:53;;;;;;;9.02;1.60;;;;;;;25.77;27.88;97780.28;2070939;28;20285;-69
2022/07/08 14:36:04;;;;;;;6.95;1.40;;;;;;;25.93;27.46;97769.06;2077734;28;20204;-70
2022/07/08 14:37:12;;;;;;;5.18;1.30;;;;;;;26.34;27.08;97785.03;2062697;28;20281;-69
2022/07/08 14:38:15;;;;;;;4.30;1.10;;;;;;;25.95;27.76;97769.75;2061610;28;20205;-69
2022/07/08 14:39:19;;;;;;;11.10;1.63;;;;;;;26.51;27.52;97770.94;2061890;28;20633;-70
2022/07/08 14:40:21;;;;;;;5.95;1.75;;;;;;;26.66;27.63;97776.69;2068638;28;20204;-69
2022/07/08 14:41:23;;;;;;;7.47;0.98;;;;;;;27.18;27.31;97781.69;2058879;28;20586;-69
2022/07/08 14:42:32;;;;;;;4.55;1.25;;;;;;;27.35;26.98;97785.47;2061386;28;20252;-69
2022/07/08 14:43:46;;;;;;;6.65;1.10;;;;;;;27.16;27.13;97777.47;2079366;28;20754;-69
2022/07/08 14:44:52;;;;;;;3.67;1.35;;;;;;;27.52;26.94;97775.81;2063177;28;20593;-69
2022/07/08 14:46:24;;;;;;;4.55;1.17;;;;;;;27.47;25.82;97777.25;2077217;28;20205;-70
2022/07/08 14:47:27;;;;;;;4.95;1.40;;;;;;;26.90;26.68;97775.44;2085613;28;20227;-69
2022/07/08 14:48:29;;;;;;;5.32;1.33;;;;;;;26.70;26.12;97775.44;2069194;28;20708;-68
2022/07/08 14:49:41;;;;;;;11.35;1.50;;;;;;;26.69;26.19;97778.25;2062161;28;20846;-68
2022/07/08 14:50:43;;;;;;;5.20;1.10;;;;;;;27.16;26.06;97778.31;2056450;28;20282;-69
2022/07/08 14:51:45;;;;;;;11.60;1.10;;;;;;;26.62;26.54;97769.09;2051615;28;20250;-68
2022/07/08 14:52:48;;;;;;;4.63;1.55;;;;;;;26.53;26.55;97774.31;2061636;28;20240;-68
2022/07/08 14:53:50;;;;;;;4.03;1.25;;;;;;;25.91;27.18;97773.69;2077384;28;20233;-69
2022/07/08 14:54:57;;;;;;;4.60;1.30;;;;;;;26.06;27.68;97776.84;2075989;28;20722;-68
2022/07/08 14:56:07;;;;;;;9.88;1.25;;;;;;;25.87;28.23;97766.94;2084370;28;20191;-70
2022/07/08 14:57:11;;;;;;;4.70;1.27;;;;;;;25.89;28.72;97770.28;2077350;28;20231;-69
2022/07/08 14:58:16;;;;;;;10.05;1.25;;;;;;;26.41;27.54;97770.13;2077613;28;20209;-70
2022/07/08 14:59:26;;;;;;;6.55;1.20;;;;;;;26.18;28.20;97775.75;2078967;28;20450;-71
2022/07/08 15:00:54;;;;;;;7.70;1.37;;;;;;;26.16;28.20;97772.34;2043096;27;2052352;-69
2022/07/08 15:01:59;;;;;;;6.30;1.17;;;;;;;27.31;27.23;97776.03;2075303;28;20720;-68
2022/07/08 15:03:15;;;;;;;5.28;1.35;;;;;;;27.00;26.68;97767.38;2077103;28;20721;-69
2022/07/08 15:04:18;;;;;;;4.75;1.50;;;;;;;27.52;26.59;97774.97;2086033;28;20542;-69
2022/07/08 15:05:20;;;;;;;4.20;1.05;;;;;;;27.11;26.13;97764.53;2077370;28;20604;-68